Landes Station, West Virginia
Current Conditions -  °F | °C
As of 12:55 AM on Thursday 18 Dec 2014 (Local Time) from KW99 Reporting Station
Broken Clouds Broken Clouds  
Wind Chill: -5°   Ceiling: 3600
Heat Index:   Visibility: 10mi
Dew Point: -8°   Wind: 18mph
Humidity: 53%   Direction: 290°WNW
Pressure: 30.09"   Gusts: 28mph
Location:  38.9337°N, 79.1435°W
Report Text: KW99 180555Z AUTO 29016G24KT 10SM SCT028 BKN036 BKN043 01/M08 A3009 RMK AO2 6//// T00101076 10035 20010 400860010 PNO
Loading
Personal Weather Stations






























Interactive Weather Map New forecast layout! Learn more

10-Day Weather Forecast

Advertisements
Track Severe Weather on mobile